Time;durP1;ratioP1;P1;durP2;ratioP2;P2;SDS_P1;SDS_P2;PMS_P1;PMS_P2;Temp;Humidity;BMP_temperature;BMP_pressure;BME280_temperature;BME280_humidity;BME280_pressure;Samples;Min_cycle;Max_cycle;Signal;HPM_P1;HPM_P2
2024/03/18 00:02:25;;;;;;;0.20;0.10;;;;;;;;;;5006351;28;20056;-77
2024/03/18 00:04:52;;;;;;;0.20;0.10;;;;;;;;;;5018915;28;20152;-78
2024/03/18 00:07:19;;;;;;;0.40;0.25;;;;;;;;;;5009364;28;20049;-77
2024/03/18 00:09:45;;;;;;;0.20;0.10;;;;;;;;;;5002720;28;20111;-77
2024/03/18 00:12:12;;;;;;;0.20;0.10;;;;;;;;;;5000406;28;20464;-77
2024/03/18 00:14:38;;;;;;;0.20;0.15;;;;;;;;;;5022302;28;20055;-77
2024/03/18 00:17:07;;;;;;;0.20;0.10;;;;;;;;;;5024074;28;20048;-80
2024/03/18 00:19:33;;;;;;;0.20;0.10;;;;;;;;;;5018917;28;20405;-79
2024/03/18 00:21:59;;;;;;;0.40;0.20;;;;;;;;;;5025964;28;20043;-80
2024/03/18 00:24:25;;;;;;;0.20;0.10;;;;;;;;;;5005448;28;20041;-80
2024/03/18 00:26:51;;;;;;;0.30;0.20;;;;;;;;;;5006376;28;20639;-80
2024/03/18 00:29:17;;;;;;;0.20;0.10;;;;;;;;;;5025766;28;20609;-81
2024/03/18 00:31:44;;;;;;;6.13;0.63;;;;;;;;;;5019784;28;20445;-80
2024/03/18 00:34:10;;;;;;;0.20;0.20;;;;;;;;;;5009648;28;20048;-79
2024/03/18 00:36:36;;;;;;;0.20;0.10;;;;;;;;;;5020807;28;20049;-80
2024/03/18 00:39:02;;;;;;;0.20;0.10;;;;;;;;;;5026368;28;20492;-80
2024/03/18 00:41:45;;;;;;;0.20;0.10;;;;;;;;;;5008567;28;20049;-81
2024/03/18 00:44:11;;;;;;;0.20;0.10;;;;;;;;;;5021192;28;20095;-78
2024/03/18 00:46:37;;;;;;;0.20;0.10;;;;;;;;;;5005643;28;20046;-78
2024/03/18 00:49:07;;;;;;;0.20;0.10;;;;;;;;;;5016820;28;20128;-78
2024/03/18 00:51:33;;;;;;;0.28;0.22;;;;;;;;;;5023392;28;20534;-78
2024/03/18 00:53:59;;;;;;;0.20;0.10;;;;;;;;;;5018058;28;20045;-77
2024/03/18 00:56:27;;;;;;;0.47;0.45;;;;;;;;;;5001268;28;20044;-78
2024/03/18 00:58:54;;;;;;;0.20;0.20;;;;;;;;;;5019562;28;20612;-78
2024/03/18 01:01:20;;;;;;;0.20;0.10;;;;;;;;;;5000793;28;20151;-78
2024/03/18 01:03:47;;;;;;;0.20;0.10;;;;;;;;;;5024946;28;20132;-78
2024/03/18 01:06:13;;;;;;;0.20;0.08;;;;;;;;;;5018669;28;21246;-78
2024/03/18 01:08:39;;;;;;;0.20;0.10;;;;;;;;;;5006450;28;20036;-77
2024/03/18 01:11:05;;;;;;;0.20;0.05;;;;;;;;;;5018030;28;20040;-77
2024/03/18 01:13:33;;;;;;;0.20;0.10;;;;;;;;;;5003105;28;20040;-78
2024/03/18 01:15:59;;;;;;;1.27;0.50;;;;;;;;;;5019320;28;20056;-79
2024/03/18 01:18:25;;;;;;;0.30;0.30;;;;;;;;;;5019253;28;20067;-78
2024/03/18 01:20:53;;;;;;;0.20;0.10;;;;;;;;;;5018423;28;20048;-77
2024/03/18 01:23:19;;;;;;;0.20;0.10;;;;;;;;;;5002124;28;20037;-78
2024/03/18 01:25:45;;;;;;;0.20;0.03;;;;;;;;;;5000066;28;20052;-78
2024/03/18 01:28:11;;;;;;;0.22;0.20;;;;;;;;;;5007023;28;20067;-78
2024/03/18 01:30:37;;;;;;;0.20;0.10;;;;;;;;;;5020402;28;20084;-78
2024/03/18 01:33:03;;;;;;;0.40;0.32;;;;;;;;;;5008096;28;20076;-78
2024/03/18 01:35:33;;;;;;;0.20;0.10;;;;;;;;;;5022056;28;20049;-78
2024/03/18 01:37:59;;;;;;;0.32;0.32;;;;;;;;;;5023261;28;20110;-78
2024/03/18 01:40:25;;;;;;;1.00;0.22;;;;;;;;;;5004053;28;20045;-79
2024/03/18 01:42:51;;;;;;;0.30;0.22;;;;;;;;;;5020470;28;20044;-79
2024/03/18 01:45:22;;;;;;;0.35;0.17;;;;;;;;;;5002597;28;20041;-80
2024/03/18 01:47:48;;;;;;;0.82;0.30;;;;;;;;;;5016423;28;20127;-80
2024/03/18 01:50:14;;;;;;;0.20;0.10;;;;;;;;;;5000386;28;20036;-81
2024/03/18 01:52:40;;;;;;;0.50;0.40;;;;;;;;;;4996716;28;20036;-78
2024/03/18 01:55:08;;;;;;;0.63;0.47;;;;;;;;;;5010021;28;20101;-80
2024/03/18 01:57:34;;;;;;;0.20;0.10;;;;;;;;;;5008128;28;20037;-78
2024/03/18 02:00:01;;;;;;;0.22;0.20;;;;;;;;;;5018880;28;20040;-80
2024/03/18 02:02:27;;;;;;;0.20;0.10;;;;;;;;;;5026584;28;20070;-80
2024/03/18 02:04:53;;;;;;;0.20;0.10;;;;;;;;;;5027988;28;20687;-81
2024/03/18 02:07:21;;;;;;;0.28;0.20;;;;;;;;;;5026535;28;20053;-81
2024/03/18 02:09:47;;;;;;;3.45;0.88;;;;;;;;;;5006547;28;20040;-81
2024/03/18 02:12:13;;;;;;;0.40;0.25;;;;;;;;;;5027900;28;20090;-80
2024/03/18 02:14:39;;;;;;;0.65;0.65;;;;;;;;;;5025581;28;20056;-80
2024/03/18 02:17:05;;;;;;;0.22;0.10;;;;;;;;;;5022251;28;20601;-80
2024/03/18 02:19:31;;;;;;;0.82;0.57;;;;;;;;;;5009867;28;20128;-79
2024/03/18 02:21:58;;;;;;;0.20;0.10;;;;;;;;;;5008707;28;20037;-81
2024/03/18 02:24:24;;;;;;;0.20;0.10;;;;;;;;;;5022069;28;20044;-80
2024/03/18 02:26:50;;;;;;;0.20;0.10;;;;;;;;;;5007352;28;20799;-80
2024/03/18 02:29:16;;;;;;;0.50;0.20;;;;;;;;;;5020611;28;20046;-81
2024/03/18 02:31:42;;;;;;;0.20;0.10;;;;;;;;;;5023459;28;20061;-81
2024/03/18 02:34:08;;;;;;;0.30;0.10;;;;;;;;;;5019609;28;20557;-80
2024/03/18 02:36:34;;;;;;;0.75;0.45;;;;;;;;;;5005320;28;20047;-80
2024/03/18 02:39:00;;;;;;;1.98;0.43;;;;;;;;;;5006510;28;20049;-80
2024/03/18 02:41:26;;;;;;;0.20;0.10;;;;;;;;;;5019572;28;20040;-80
2024/03/18 02:43:53;;;;;;;0.20;0.00;;;;;;;;;;5025168;28;20704;-80
2024/03/18 02:46:19;;;;;;;0.20;0.10;;;;;;;;;;5015668;28;20072;-81
2024/03/18 02:48:45;;;;;;;0.38;0.38;;;;;;;;;;5022062;28;20061;-80
2024/03/18 02:51:11;;;;;;;0.30;0.20;;;;;;;;;;5020706;28;20482;-80
2024/03/18 02:53:37;;;;;;;0.40;0.20;;;;;;;;;;5014557;28;20095;-80
2024/03/18 02:56:03;;;;;;;0.20;0.10;;;;;;;;;;5015697;28;20460;-80
2024/03/18 02:58:29;;;;;;;0.20;0.20;;;;;;;;;;5018003;28;20136;-78
2024/03/18 03:00:55;;;;;;;0.50;0.50;;;;;;;;;;5018004;28;20096;-79
2024/03/18 03:03:21;;;;;;;0.20;0.10;;;;;;;;;;5017146;28;20517;-78
2024/03/18 03:05:47;;;;;;;0.22;0.22;;;;;;;;;;4998724;28;20040;-78
2024/03/18 03:08:13;;;;;;;0.20;0.10;;;;;;;;;;5002008;28;20033;-78
2024/03/18 03:10:39;;;;;;;0.20;0.10;;;;;;;;;;5020075;28;20068;-77
2024/03/18 03:13:05;;;;;;;0.30;0.30;;;;;;;;;;5001073;28;20037;-78
2024/03/18 03:15:35;;;;;;;0.30;0.30;;;;;;;;;;5018835;28;20041;-78
2024/03/18 03:18:02;;;;;;;0.28;0.22;;;;;;;;;;5005387;28;20128;-78
2024/03/18 03:20:30;;;;;;;0.20;0.08;;;;;;;;;;5001164;28;20041;-78
2024/03/18 03:22:58;;;;;;;0.43;0.40;;;;;;;;;;5007182;28;20048;-78
2024/03/18 03:25:24;;;;;;;1.85;0.82;;;;;;;;;;5000190;28;20238;-79
2024/03/18 03:27:50;;;;;;;0.20;0.10;;;;;;;;;;5008194;28;20288;-79
2024/03/18 03:30:16;;;;;;;0.20;0.10;;;;;;;;;;5017425;28;20495;-78
2024/03/18 03:32:42;;;;;;;0.20;0.05;;;;;;;;;;5017533;28;20037;-78
2024/03/18 03:35:08;;;;;;;0.20;0.10;;;;;;;;;;5006727;28;20061;-78
2024/03/18 03:37:36;;;;;;;0.20;0.10;;;;;;;;;;5003909;28;20037;-79
2024/03/18 03:40:03;;;;;;;0.20;0.20;;;;;;;;;;5021124;28;20044;-78
2024/03/18 03:42:29;;;;;;;0.20;0.10;;;;;;;;;;5023193;28;20052;-79
2024/03/18 03:44:55;;;;;;;0.20;0.10;;;;;;;;;;5021010;28;20059;-77
2024/03/18 03:47:21;;;;;;;0.22;0.22;;;;;;;;;;5002568;28;20040;-78
2024/03/18 03:49:47;;;;;;;0.25;0.15;;;;;;;;;;5004502;28;20210;-78
2024/03/18 03:52:13;;;;;;;0.20;0.10;;;;;;;;;;5024700;28;20040;-78
2024/03/18 03:54:39;;;;;;;0.20;0.10;;;;;;;;;;5002332;28;20040;-79
2024/03/18 03:57:05;;;;;;;0.20;0.10;;;;;;;;;;5004576;28;20041;-78
2024/03/18 03:59:31;;;;;;;0.20;0.00;;;;;;;;;;5022243;28;20122;-78
2024/03/18 04:01:57;;;;;;;0.20;0.10;;;;;;;;;;5021243;28;20092;-78
2024/03/18 04:04:23;;;;;;;0.20;0.03;;;;;;;;;;5007802;28;20036;-78
2024/03/18 04:06:49;;;;;;;0.20;0.00;;;;;;;;;;5015576;28;20179;-79
2024/03/18 04:09:15;;;;;;;0.20;0.08;;;;;;;;;;5021511;28;20044;-78
2024/03/18 04:11:41;;;;;;;1.20;0.28;;;;;;;;;;5016989;28;20045;-78
2024/03/18 04:14:07;;;;;;;0.20;0.20;;;;;;;;;;5006126;28;20052;-78
2024/03/18 04:16:33;;;;;;;0.20;0.15;;;;;;;;;;5021339;28;20033;-78
2024/03/18 04:19:00;;;;;;;0.20;0.15;;;;;;;;;;5006985;28;20041;-78
2024/03/18 04:21:26;;;;;;;0.20;0.10;;;;;;;;;;5005951;28;20079;-79
2024/03/18 04:23:52;;;;;;;0.20;0.10;;;;;;;;;;5004887;28;20037;-77
2024/03/18 04:26:18;;;;;;;0.20;0.03;;;;;;;;;;5002402;28;20045;-79
2024/03/18 04:28:44;;;;;;;0.32;0.32;;;;;;;;;;5022851;28;20037;-77
2024/03/18 04:31:11;;;;;;;0.45;0.45;;;;;;;;;;5021999;28;20812;-78
2024/03/18 04:33:40;;;;;;;0.63;0.30;;;;;;;;;;5019747;28;20069;-78
2024/03/18 04:36:09;;;;;;;0.20;0.00;;;;;;;;;;5022148;28;20489;-78
2024/03/18 04:38:35;;;;;;;1.17;0.47;;;;;;;;;;5005063;28;20044;-79
2024/03/18 04:41:01;;;;;;;0.85;0.40;;;;;;;;;;5007605;28;20140;-77
2024/03/18 04:43:27;;;;;;;0.20;0.10;;;;;;;;;;4999837;28;20048;-78
2024/03/18 04:45:53;;;;;;;0.20;0.00;;;;;;;;;;5018622;28;20044;-78
2024/03/18 04:48:19;;;;;;;0.30;0.10;;;;;;;;;;5022260;28;20102;-77
2024/03/18 04:50:46;;;;;;;0.20;0.10;;;;;;;;;;5019283;28;20049;-78
2024/03/18 04:53:12;;;;;;;0.32;0.32;;;;;;;;;;4995533;28;20493;-78
2024/03/18 04:55:38;;;;;;;0.20;0.10;;;;;;;;;;5005961;28;20033;-81
2024/03/18 04:58:04;;;;;;;0.20;0.20;;;;;;;;;;4999405;28;23140;-80
2024/03/18 05:00:30;;;;;;;0.35;0.20;;;;;;;;;;5015507;28;20048;-80
2024/03/18 05:02:56;;;;;;;0.20;0.13;;;;;;;;;;5030551;28;20040;-81
2024/03/18 05:05:22;;;;;;;0.25;0.15;;;;;;;;;;5010796;28;20045;-81
2024/03/18 05:07:49;;;;;;;0.20;0.10;;;;;;;;;;5022994;28;20051;-81
2024/03/18 05:10:21;;;;;;;0.20;0.13;;;;;;;;;;5010518;28;20045;-80
2024/03/18 05:12:47;;;;;;;0.20;0.20;;;;;;;;;;5029828;28;20500;-80
2024/03/18 05:15:13;;;;;;;0.20;0.10;;;;;;;;;;5021052;28;20045;-80
2024/03/18 05:17:39;;;;;;;0.20;0.08;;;;;;;;;;5020327;28;20037;-80
2024/03/18 05:20:12;;;;;;;0.20;0.10;;;;;;;;;;5015635;28;20044;-79
2024/03/18 05:22:38;;;;;;;0.20;0.10;;;;;;;;;;5017432;28;20048;-81
2024/03/18 05:25:07;;;;;;;0.20;0.10;;;;;;;;;;5015376;28;21760;-80
2024/03/18 05:27:33;;;;;;;0.20;0.10;;;;;;;;;;5005772;28;21767;-80
2024/03/18 05:30:02;;;;;;;0.20;0.15;;;;;;;;;;5000806;28;20056;-80
2024/03/18 05:32:28;;;;;;;0.38;0.20;;;;;;;;;;5019907;28;20033;-81
2024/03/18 05:34:54;;;;;;;0.20;0.10;;;;;;;;;;5069784;23;20136;-76
2024/03/18 05:37:20;;;;;;;0.20;0.10;;;;;;;;;;5017980;28;20044;-76
2024/03/18 05:39:46;;;;;;;0.20;0.00;;;;;;;;;;5042433;28;20516;-77
2024/03/18 05:42:12;;;;;;;0.22;0.20;;;;;;;;;;5025522;28;20112;-76
2024/03/18 05:44:38;;;;;;;0.20;0.10;;;;;;;;;;5039322;28;20037;-76
2024/03/18 05:47:04;;;;;;;0.20;0.10;;;;;;;;;;5036445;28;20055;-76
2024/03/18 05:49:32;;;;;;;2.95;0.63;;;;;;;;;;5040091;28;21637;-76
2024/03/18 05:51:58;;;;;;;0.20;0.10;;;;;;;;;;5037412;28;20432;-76
2024/03/18 05:54:25;;;;;;;0.63;0.52;;;;;;;;;;5016591;28;20048;-75
2024/03/18 05:56:51;;;;;;;0.20;0.08;;;;;;;;;;5035534;28;20041;-77
2024/03/18 05:59:17;;;;;;;0.20;0.00;;;;;;;;;;5035616;28;20131;-76
2024/03/18 06:01:43;;;;;;;0.20;0.10;;;;;;;;;;5015097;28;20080;-77
2024/03/18 06:04:12;;;;;;;0.20;0.10;;;;;;;;;;5010821;28;20075;-75
2024/03/18 06:06:39;;;;;;;0.20;0.10;;;;;;;;;;5024063;28;20044;-76
2024/03/18 06:09:05;;;;;;;0.80;0.52;;;;;;;;;;5038158;28;20048;-77
2024/03/18 06:11:33;;;;;;;0.30;0.30;;;;;;;;;;5032627;28;20545;-75
2024/03/18 06:13:59;;;;;;;0.20;0.10;;;;;;;;;;5038210;28;20052;-76
2024/03/18 06:16:25;;;;;;;0.20;0.10;;;;;;;;;;5039510;28;20036;-76
2024/03/18 06:18:54;;;;;;;0.20;0.20;;;;;;;;;;5039790;28;20052;-75
2024/03/18 06:21:20;;;;;;;2.38;0.55;;;;;;;;;;5037365;28;20104;-76
2024/03/18 06:23:50;;;;;;;0.30;0.22;;;;;;;;;;5032934;28;20077;-76
2024/03/18 06:26:16;;;;;;;0.45;0.45;;;;;;;;;;5039563;28;20047;-76
2024/03/18 06:28:43;;;;;;;0.20;0.13;;;;;;;;;;5018262;28;20040;-76
2024/03/18 06:31:09;;;;;;;0.20;0.10;;;;;;;;;;5038157;28;20504;-76
2024/03/18 06:33:35;;;;;;;0.20;0.10;;;;;;;;;;5036985;28;20417;-76
2024/03/18 06:36:08;;;;;;;0.20;0.20;;;;;;;;;;5059385;28;20048;-76
2024/03/18 06:38:35;;;;;;;0.43;0.38;;;;;;;;;;5059657;28;20808;-76
2024/03/18 06:41:01;;;;;;;0.35;0.35;;;;;;;;;;5061474;28;20105;-76
2024/03/18 06:43:27;;;;;;;6.72;1.00;;;;;;;;;;5057791;28;20040;-77
2024/03/18 06:45:53;;;;;;;0.20;0.20;;;;;;;;;;5060763;28;20083;-76
2024/03/18 06:48:19;;;;;;;0.30;0.30;;;;;;;;;;5061452;28;20047;-77
2024/03/18 06:50:45;;;;;;;0.20;0.10;;;;;;;;;;5061647;28;20099;-76
2024/03/18 06:53:11;;;;;;;0.20;0.00;;;;;;;;;;5062600;28;20049;-76
2024/03/18 06:55:40;;;;;;;0.20;0.08;;;;;;;;;;5063350;28;20136;-76
2024/03/18 06:58:06;;;;;;;0.55;0.38;;;;;;;;;;5059905;28;21402;-76
2024/03/18 07:00:32;;;;;;;0.20;0.10;;;;;;;;;;5066799;28;20071;-77
2024/03/18 07:02:58;;;;;;;0.20;0.10;;;;;;;;;;5064852;28;20056;-76
2024/03/18 07:05:25;;;;;;;0.20;0.10;;;;;;;;;;5068387;28;20042;-77
2024/03/18 07:07:51;;;;;;;0.20;0.10;;;;;;;;;;5062252;28;20060;-76
2024/03/18 07:10:18;;;;;;;0.40;0.30;;;;;;;;;;5069339;28;20063;-76
2024/03/18 07:12:44;;;;;;;0.40;0.20;;;;;;;;;;5037175;28;20060;-76
2024/03/18 07:15:11;;;;;;;0.20;0.10;;;;;;;;;;5041648;28;20067;-76
2024/03/18 07:17:38;;;;;;;0.25;0.20;;;;;;;;;;5076098;28;20040;-76
2024/03/18 07:20:06;;;;;;;0.20;0.10;;;;;;;;;;5063571;28;20059;-76
2024/03/18 07:22:35;;;;;;;0.25;0.22;;;;;;;;;;5071832;28;20044;-76
2024/03/18 07:25:01;;;;;;;0.20;0.10;;;;;;;;;;5065573;28;20049;-76
2024/03/18 07:27:27;;;;;;;0.20;0.20;;;;;;;;;;5068198;28;20045;-75
2024/03/18 07:29:57;;;;;;;0.25;0.15;;;;;;;;;;5068826;28;20691;-75
2024/03/18 07:32:24;;;;;;;0.20;0.20;;;;;;;;;;5069072;28;20036;-75
2024/03/18 07:34:50;;;;;;;0.80;0.30;;;;;;;;;;5068075;28;20070;-75
2024/03/18 07:37:17;;;;;;;1.85;0.30;;;;;;;;;;5071334;28;20099;-75
2024/03/18 07:39:43;;;;;;;0.20;0.10;;;;;;;;;;5059149;28;20123;-75
2024/03/18 07:42:11;;;;;;;0.20;0.10;;;;;;;;;;5073160;28;20040;-75
2024/03/18 07:44:37;;;;;;;0.20;0.10;;;;;;;;;;5068660;28;20047;-75
2024/03/18 07:47:03;;;;;;;0.20;0.10;;;;;;;;;;5073995;28;20068;-75
2024/03/18 07:49:29;;;;;;;2.05;0.85;;;;;;;;;;5075224;28;20601;-75
2024/03/18 07:51:55;;;;;;;0.20;0.10;;;;;;;;;;5073193;28;20328;-75
2024/03/18 07:54:21;;;;;;;0.68;0.57;;;;;;;;;;5039409;28;20101;-75
2024/03/18 07:56:47;;;;;;;0.30;0.28;;;;;;;;;;5069795;28;20511;-75
2024/03/18 07:59:13;;;;;;;0.35;0.32;;;;;;;;;;5066707;28;20044;-75
2024/03/18 08:01:39;;;;;;;0.20;0.20;;;;;;;;;;5068878;28;20040;-76
2024/03/18 08:04:06;;;;;;;0.20;0.10;;;;;;;;;;5076437;28;20043;-75
2024/03/18 08:06:32;;;;;;;0.30;0.25;;;;;;;;;;5077023;28;20067;-75
2024/03/18 08:08:58;;;;;;;0.20;0.10;;;;;;;;;;5073464;28;20041;-75
2024/03/18 08:11:24;;;;;;;0.20;0.00;;;;;;;;;;5071957;28;20140;-75
2024/03/18 08:13:50;;;;;;;0.20;0.20;;;;;;;;;;5055557;28;20041;-75
2024/03/18 08:16:16;;;;;;;0.60;0.13;;;;;;;;;;5075000;28;20037;-75
2024/03/18 08:18:42;;;;;;;6.28;0.50;;;;;;;;;;5065766;28;20166;-75
2024/03/18 08:21:08;;;;;;;0.30;0.10;;;;;;;;;;5039750;28;20068;-76
2024/03/18 08:23:34;;;;;;;0.95;0.20;;;;;;;;;;5069373;28;20048;-76
2024/03/18 08:26:00;;;;;;;0.28;0.20;;;;;;;;;;5044575;28;20044;-76
2024/03/18 08:28:26;;;;;;;0.47;0.47;;;;;;;;;;5066503;28;20075;-76
2024/03/18 08:30:52;;;;;;;0.25;0.22;;;;;;;;;;5073708;28;20041;-76
2024/03/18 08:33:18;;;;;;;0.20;0.10;;;;;;;;;;5079517;28;20036;-75
2024/03/18 08:35:45;;;;;;;0.32;0.30;;;;;;;;;;5076224;28;20066;-76
2024/03/18 08:38:11;;;;;;;0.55;0.30;;;;;;;;;;5074758;28;20138;-76
2024/03/18 08:40:37;;;;;;;0.20;0.10;;;;;;;;;;5067304;28;20040;-76
2024/03/18 08:43:03;;;;;;;1.67;0.90;;;;;;;;;;5067956;28;20041;-75
2024/03/18 08:45:29;;;;;;;0.20;0.10;;;;;;;;;;5077175;28;20107;-76
2024/03/18 08:47:55;;;;;;;0.40;0.30;;;;;;;;;;5074286;28;20037;-76
2024/03/18 08:50:21;;;;;;;0.35;0.35;;;;;;;;;;5072611;28;20049;-77
2024/03/18 08:52:47;;;;;;;0.30;0.30;;;;;;;;;;5051541;28;20036;-77
2024/03/18 08:55:13;;;;;;;0.35;0.35;;;;;;;;;;5037538;28;20116;-76
2024/03/18 08:57:39;;;;;;;0.20;0.00;;;;;;;;;;5071349;28;20109;-76
2024/03/18 09:00:10;;;;;;;0.30;0.30;;;;;;;;;;5079626;28;20039;-76
2024/03/18 09:02:37;;;;;;;0.28;0.20;;;;;;;;;;5070703;28;20540;-76
2024/03/18 09:05:03;;;;;;;0.20;0.10;;;;;;;;;;5069452;28;20297;-76
2024/03/18 09:07:29;;;;;;;0.20;0.10;;;;;;;;;;5068286;28;20542;-76
2024/03/18 09:09:55;;;;;;;0.22;0.13;;;;;;;;;;5072037;28;20062;-77
2024/03/18 09:12:21;;;;;;;0.20;0.10;;;;;;;;;;5032289;28;20048;-76
2024/03/18 09:14:47;;;;;;;0.20;0.08;;;;;;;;;;5055573;28;20144;-76
2024/03/18 09:17:13;;;;;;;0.47;0.30;;;;;;;;;;5072140;28;20063;-76
2024/03/18 09:19:40;;;;;;;0.20;0.00;;;;;;;;;;5069195;28;20123;-76
2024/03/18 09:22:08;;;;;;;0.20;0.10;;;;;;;;;;5077424;28;20487;-76
2024/03/18 09:24:34;;;;;;;0.73;0.38;;;;;;;;;;5071541;28;20095;-76
2024/03/18 09:27:02;;;;;;;4.63;0.47;;;;;;;;;;5074007;28;20056;-76
2024/03/18 09:29:28;;;;;;;0.20;0.10;;;;;;;;;;5053034;28;20079;-76
2024/03/18 09:31:55;;;;;;;0.25;0.20;;;;;;;;;;5074399;28;20066;-76
2024/03/18 09:34:21;;;;;;;0.20;0.00;;;;;;;;;;5035226;28;20098;-76
2024/03/18 09:36:47;;;;;;;0.57;0.50;;;;;;;;;;5037300;28;20048;-76
2024/03/18 09:39:13;;;;;;;0.70;0.70;;;;;;;;;;5065452;28;20041;-75
2024/03/18 09:41:44;;;;;;;0.20;0.00;;;;;;;;;;5065812;28;20047;-76
2024/03/18 09:44:14;;;;;;;0.45;0.45;;;;;;;;;;5071951;28;20058;-75
2024/03/18 09:46:40;;;;;;;0.20;0.10;;;;;;;;;;5069052;28;20040;-76
2024/03/18 09:49:10;;;;;;;0.90;0.65;;;;;;;;;;5068810;28;20044;-76
2024/03/18 09:51:39;;;;;;;0.20;0.10;;;;;;;;;;5077876;28;20045;-76
2024/03/18 09:54:06;;;;;;;0.20;0.00;;;;;;;;;;5046305;28;20052;-77
2024/03/18 09:56:34;;;;;;;0.20;0.10;;;;;;;;;;5055317;28;20062;-76
2024/03/18 09:59:00;;;;;;;0.20;0.10;;;;;;;;;;5061342;28;20063;-75
2024/03/18 10:01:28;;;;;;;0.40;0.35;;;;;;;;;;5058414;28;20049;-76
2024/03/18 10:03:54;;;;;;;0.20;0.13;;;;;;;;;;5068589;28;20045;-76
2024/03/18 10:06:20;;;;;;;0.50;0.38;;;;;;;;;;5067526;28;20040;-76
2024/03/18 10:08:46;;;;;;;0.43;0.35;;;;;;;;;;5062961;28;20053;-76
2024/03/18 10:11:16;;;;;;;0.57;0.40;;;;;;;;;;5035642;28;20074;-76
2024/03/18 10:13:42;;;;;;;0.20;0.08;;;;;;;;;;5054409;28;20047;-76
2024/03/18 10:16:11;;;;;;;0.28;0.15;;;;;;;;;;5069849;28;20029;-77
2024/03/18 10:18:37;;;;;;;0.43;0.25;;;;;;;;;;5036962;28;20100;-78
2024/03/18 10:21:03;;;;;;;0.25;0.10;;;;;;;;;;5073520;28;20060;-78
2024/03/18 10:23:29;;;;;;;0.30;0.30;;;;;;;;;;5066323;28;20040;-77
2024/03/18 10:25:55;;;;;;;0.70;0.55;;;;;;;;;;5074914;28;20036;-77
2024/03/18 10:28:21;;;;;;;0.20;0.08;;;;;;;;;;5075810;28;20104;-77
2024/03/18 10:30:48;;;;;;;0.22;0.15;;;;;;;;;;5071324;28;20052;-77
2024/03/18 10:33:16;;;;;;;0.40;0.30;;;;;;;;;;5073890;28;20029;-78
2024/03/18 10:35:47;;;;;;;0.20;0.10;;;;;;;;;;5074326;28;20044;-77
2024/03/18 10:38:20;;;;;;;0.20;0.10;;;;;;;;;;5056680;28;20044;-77
2024/03/18 10:40:50;;;;;;;0.20;0.10;;;;;;;;;;5073796;28;20126;-78
2024/03/18 10:43:22;;;;;;;0.28;0.10;;;;;;;;;;5058495;28;20135;-77
2024/03/18 10:45:50;;;;;;;0.20;0.10;;;;;;;;;;5077306;28;20107;-78
2024/03/18 10:48:17;;;;;;;0.38;0.38;;;;;;;;;;5077847;28;20036;-78
2024/03/18 10:50:44;;;;;;;0.30;0.13;;;;;;;;;;5080107;28;20046;-78
2024/03/18 10:53:29;;;;;;;0.20;0.00;;;;;;;;;;5076170;28;20106;-78
2024/03/18 10:55:57;;;;;;;0.70;0.70;;;;;;;;;;5054717;28;20036;-77
2024/03/18 10:58:27;;;;;;;0.20;0.10;;;;;;;;;;5076693;28;20048;-77
2024/03/18 11:00:53;;;;;;;0.32;0.32;;;;;;;;;;5080035;28;20040;-77
2024/03/18 11:03:20;;;;;;;0.30;0.22;;;;;;;;;;5075867;28;20036;-77
2024/03/18 11:05:53;;;;;;;0.20;0.20;;;;;;;;;;5074820;28;20040;-77
2024/03/18 11:08:22;;;;;;;0.20;0.15;;;;;;;;;;5071804;28;20049;-77
2024/03/18 11:10:49;;;;;;;0.20;0.17;;;;;;;;;;5072471;28;20032;-77
2024/03/18 11:13:19;;;;;;;0.20;0.00;;;;;;;;;;5077867;28;20137;-77
2024/03/18 11:15:48;;;;;;;0.28;0.20;;;;;;;;;;5072582;28;20036;-77
2024/03/18 11:18:34;;;;;;;0.20;0.10;;;;;;;;;;5060422;28;20044;-77
2024/03/18 11:21:02;;;;;;;0.70;0.70;;;;;;;;;;5079771;28;20044;-77
2024/03/18 11:23:30;;;;;;;0.20;0.10;;;;;;;;;;5075279;28;20068;-77
2024/03/18 11:25:57;;;;;;;0.20;0.10;;;;;;;;;;5050582;28;20043;-77
2024/03/18 11:28:41;;;;;;;0.20;0.10;;;;;;;;;;5074972;28;20062;-76
2024/03/18 11:31:08;;;;;;;0.35;0.28;;;;;;;;;;5056069;28;20362;-76
2024/03/18 11:33:38;;;;;;;0.20;0.20;;;;;;;;;;5075131;28;20073;-76
2024/03/18 11:36:04;;;;;;;0.20;0.10;;;;;;;;;;5029354;23;20056;-78
2024/03/18 11:38:31;;;;;;;0.20;0.10;;;;;;;;;;5001124;28;20112;-78
2024/03/18 11:40:57;;;;;;;0.20;0.20;;;;;;;;;;4989893;28;20045;-78
2024/03/18 11:43:23;;;;;;;0.20;0.20;;;;;;;;;;4989700;28;20053;-78
2024/03/18 11:45:49;;;;;;;0.25;0.17;;;;;;;;;;5018152;28;20051;-78
2024/03/18 11:48:16;;;;;;;0.20;0.10;;;;;;;;;;5025594;28;20079;-78
2024/03/18 11:50:42;;;;;;;0.20;0.10;;;;;;;;;;5025652;28;20124;-79
2024/03/18 11:53:09;;;;;;;0.32;0.32;;;;;;;;;;5015205;28;20068;-78
2024/03/18 11:55:36;;;;;;;0.20;0.10;;;;;;;;;;5025666;28;20119;-78
2024/03/18 11:58:03;;;;;;;0.20;0.20;;;;;;;;;;5006670;28;20041;-78
2024/03/18 12:00:33;;;;;;;0.20;0.20;;;;;;;;;;5008336;28;20554;-78
2024/03/18 12:03:03;;;;;;;0.20;0.10;;;;;;;;;;5022683;28;20051;-78
2024/03/18 12:05:29;;;;;;;0.30;0.17;;;;;;;;;;5022901;28;20041;-79
2024/03/18 12:07:55;;;;;;;0.57;0.43;;;;;;;;;;5018293;28;20378;-78
2024/03/18 12:10:22;;;;;;;0.30;0.25;;;;;;;;;;5019937;28;20075;-78
2024/03/18 12:12:49;;;;;;;0.20;0.10;;;;;;;;;;5003252;28;20579;-77
2024/03/18 12:15:15;;;;;;;0.20;0.10;;;;;;;;;;5008370;28;20047;-79
2024/03/18 12:17:44;;;;;;;0.30;0.30;;;;;;;;;;5024846;28;20040;-79
2024/03/18 12:20:23;;;;;;;0.20;0.10;;;;;;;;;;5024570;28;20049;-78
2024/03/18 12:22:58;;;;;;;0.40;0.40;;;;;;;;;;5019401;28;20424;-79
2024/03/18 12:30:57;;;;;;;0.20;0.10;;;;;;;;;;5026334;28;20123;-78
2024/03/18 12:33:23;;;;;;;0.20;0.10;;;;;;;;;;5012419;28;20516;-78
2024/03/18 12:35:49;;;;;;;0.45;0.45;;;;;;;;;;5018105;28;20036;-78
2024/03/18 12:38:15;;;;;;;0.65;0.40;;;;;;;;;;5021601;28;20405;-78
2024/03/18 12:40:41;;;;;;;0.20;0.10;;;;;;;;;;5022217;28;20044;-79
2024/03/18 12:43:08;;;;;;;0.20;0.10;;;;;;;;;;5021540;28;20040;-77
2024/03/18 12:45:35;;;;;;;0.43;0.20;;;;;;;;;;5022276;28;20041;-78
2024/03/18 12:48:01;;;;;;;0.52;0.52;;;;;;;;;;5006698;28;20037;-78
2024/03/18 12:50:30;;;;;;;0.20;0.10;;;;;;;;;;5006939;28;20044;-78
2024/03/18 12:52:56;;;;;;;0.20;0.10;;;;;;;;;;5004992;28;20493;-78
2024/03/18 12:55:22;;;;;;;0.25;0.15;;;;;;;;;;5020000;28;20420;-78
2024/03/18 12:57:48;;;;;;;0.30;0.28;;;;;;;;;;5021021;28;20436;-78
2024/03/18 13:00:17;;;;;;;1.48;0.75;;;;;;;;;;5006963;28;20045;-78
2024/03/18 13:02:43;;;;;;;1.02;0.73;;;;;;;;;;5022566;28;20052;-78
2024/03/18 13:05:09;;;;;;;0.40;0.35;;;;;;;;;;5013965;28;20048;-78
2024/03/18 13:07:42;;;;;;;0.20;0.10;;;;;;;;;;5006970;28;20037;-78
2024/03/18 13:10:10;;;;;;;0.95;0.20;;;;;;;;;;5007300;28;20504;-78
2024/03/18 13:12:37;;;;;;;0.20;0.10;;;;;;;;;;5019333;28;20044;-79
2024/03/18 13:15:06;;;;;;;0.60;0.30;;;;;;;;;;5021811;28;20357;-78
2024/03/18 13:17:32;;;;;;;3.22;0.40;;;;;;;;;;5004408;28;20032;-78
2024/03/18 13:20:04;;;;;;;0.20;0.10;;;;;;;;;;5003836;28;20029;-79
2024/03/18 13:22:31;;;;;;;0.20;0.10;;;;;;;;;;5019276;28;20039;-78
2024/03/18 13:25:00;;;;;;;0.40;0.40;;;;;;;;;;5020718;28;20094;-78
2024/03/18 13:27:26;;;;;;;0.20;0.05;;;;;;;;;;5024569;28;20044;-78
2024/03/18 13:29:52;;;;;;;0.30;0.22;;;;;;;;;;5020644;28;20087;-79
2024/03/18 13:32:21;;;;;;;0.25;0.22;;;;;;;;;;5016793;28;20028;-79
2024/03/18 13:34:47;;;;;;;0.20;0.08;;;;;;;;;;5001099;28;20039;-78
2024/03/18 13:37:13;;;;;;;0.20;0.00;;;;;;;;;;5005883;28;20033;-78
2024/03/18 13:39:39;;;;;;;0.30;0.10;;;;;;;;;;5024447;28;20042;-78
2024/03/18 13:42:15;;;;;;;0.20;0.10;;;;;;;;;;5001653;28;20338;-79
2024/03/18 13:44:43;;;;;;;4.25;0.68;;;;;;;;;;5005052;28;20041;-78
2024/03/18 13:47:09;;;;;;;0.32;0.15;;;;;;;;;;5018738;28;20049;-78
2024/03/18 13:49:35;;;;;;;0.20;0.10;;;;;;;;;;5020108;28;20055;-77
2024/03/18 13:52:03;;;;;;;0.47;0.47;;;;;;;;;;5009437;28;20041;-78
2024/03/18 13:54:29;;;;;;;0.20;0.17;;;;;;;;;;5000467;28;20076;-78
2024/03/18 13:56:59;;;;;;;0.20;0.10;;;;;;;;;;5028241;28;20055;-78
2024/03/18 13:59:27;;;;;;;0.30;0.20;;;;;;;;;;5022380;28;20052;-78
2024/03/18 14:01:53;;;;;;;0.28;0.28;;;;;;;;;;5001451;28;20037;-78
2024/03/18 14:04:19;;;;;;;0.20;0.17;;;;;;;;;;5022003;28;20098;-78
2024/03/18 14:06:45;;;;;;;0.20;0.10;;;;;;;;;;5018275;28;20691;-78
2024/03/18 14:09:11;;;;;;;0.20;0.10;;;;;;;;;;5004486;28;20223;-78
2024/03/18 14:11:37;;;;;;;0.20;0.10;;;;;;;;;;4999856;28;20122;-79
2024/03/18 14:14:03;;;;;;;0.20;0.10;;;;;;;;;;5005291;28;20064;-79
2024/03/18 14:16:31;;;;;;;4.47;0.50;;;;;;;;;;5005501;28;20071;-78
2024/03/18 14:18:57;;;;;;;0.32;0.32;;;;;;;;;;5018750;28;20049;-80
2024/03/18 14:21:23;;;;;;;0.20;0.10;;;;;;;;;;5034350;28;20505;-79
2024/03/18 14:23:49;;;;;;;0.25;0.17;;;;;;;;;;5024324;28;20045;-79
2024/03/18 14:26:16;;;;;;;0.45;0.20;;;;;;;;;;5006077;28;20037;-79
2024/03/18 14:28:42;;;;;;;0.20;0.10;;;;;;;;;;5007757;28;20049;-80
2024/03/18 14:31:09;;;;;;;0.20;0.10;;;;;;;;;;5022590;28;20539;-79
2024/03/18 14:33:37;;;;;;;0.30;0.20;;;;;;;;;;5025591;28;20515;-79
2024/03/18 14:36:04;;;;;;;0.20;0.10;;;;;;;;;;5018558;28;20033;-79
2024/03/18 14:38:30;;;;;;;0.30;0.22;;;;;;;;;;5021423;28;20273;-79
2024/03/18 14:40:56;;;;;;;0.35;0.20;;;;;;;;;;5024577;28;20052;-79
2024/03/18 14:43:22;;;;;;;0.20;0.10;;;;;;;;;;5019172;28;20045;-80
2024/03/18 14:45:48;;;;;;;0.20;0.10;;;;;;;;;;5019386;28;20049;-79
2024/03/18 14:48:14;;;;;;;0.47;0.22;;;;;;;;;;5023291;28;20260;-79